createdAt,value
2023-05-18T00:02:21.564Z,61.77
2023-05-18T00:04:48.280Z,62.32
2023-05-18T00:07:15.466Z,62.45
2023-05-18T00:09:41.988Z,62.53
2023-05-18T00:12:09.934Z,63.42
2023-05-18T00:14:37.553Z,63.09
2023-05-18T00:17:04.150Z,63.30
2023-05-18T00:19:31.441Z,63.79
2023-05-18T00:21:58.012Z,63.92
2023-05-18T00:24:24.895Z,63.79
2023-05-18T00:26:51.490Z,64.51
2023-05-18T00:29:18.004Z,65.27
2023-05-18T00:31:45.442Z,65.36
2023-05-18T00:34:13.816Z,65.30
2023-05-18T00:36:40.912Z,65.60
2023-05-18T00:39:12.251Z,65.46
2023-05-18T00:41:38.969Z,66.06
2023-05-18T00:44:05.748Z,65.69
2023-05-18T00:46:32.422Z,66.70
2023-05-18T00:49:01.552Z,66.67
2023-05-18T00:51:28.982Z,66.63
2023-05-18T00:53:56.750Z,66.46
2023-05-18T00:56:23.629Z,66.55
2023-05-18T00:58:55.704Z,66.91
2023-05-18T01:01:30.683Z,66.97
2023-05-18T01:04:02.129Z,67.49
2023-05-18T01:06:32.657Z,67.99
2023-05-18T01:09:02.537Z,67.40
2023-05-18T01:11:44.208Z,67.64
2023-05-18T01:14:20.178Z,67.92
2023-05-18T01:17:35.001Z,68.04
2023-05-18T01:20:12.070Z,68.35
2023-05-18T01:23:13.897Z,68.71
2023-05-18T01:25:48.334Z,68.47
2023-05-18T01:28:17.595Z,68.23
2023-05-18T01:30:45.159Z,68.75
2023-05-18T01:33:13.190Z,68.77
2023-05-18T01:35:41.747Z,69.02
2023-05-18T01:38:08.218Z,69.07
2023-05-18T01:40:46.036Z,68.85
2023-05-18T01:43:18.219Z,69.36
2023-05-18T01:45:48.924Z,69.82
2023-05-18T01:48:20.985Z,69.47
2023-05-18T01:50:49.001Z,69.27
2023-05-18T01:53:27.853Z,69.83
2023-05-18T01:55:55.383Z,69.45
2023-05-18T01:58:23.974Z,69.47
2023-05-18T02:00:51.393Z,69.70
2023-05-18T02:03:18.035Z,69.89
2023-05-18T02:05:44.615Z,70.64
2023-05-18T02:08:11.593Z,70.90
2023-05-18T02:10:38.080Z,70.50
2023-05-18T02:13:04.598Z,70.62
2023-05-18T02:15:31.407Z,70.62
2023-05-18T02:17:58.120Z,70.07
2023-05-18T02:20:24.825Z,71.18
2023-05-18T02:22:51.361Z,70.75
2023-05-18T02:25:19.096Z,71.22
2023-05-18T02:27:45.613Z,71.33
2023-05-18T02:30:15.157Z,71.46
2023-05-18T02:32:42.777Z,72.07
2023-05-18T02:35:10.147Z,71.39
2023-05-18T02:37:40.098Z,72.05
2023-05-18T02:40:10.938Z,71.67
2023-05-18T02:42:37.406Z,72.05
2023-05-18T02:45:04.296Z,71.95
2023-05-18T02:47:30.942Z,71.94
2023-05-18T02:49:57.489Z,72.58
2023-05-18T02:52:24.018Z,71.91
2023-05-18T02:54:50.801Z,72.25
2023-05-18T02:57:17.484Z,72.21
2023-05-18T02:59:43.996Z,72.36
2023-05-18T03:02:14.197Z,72.06
2023-05-18T03:04:41.643Z,72.20
2023-05-18T03:07:08.234Z,72.10
2023-05-18T03:09:34.781Z,72.34
2023-05-18T03:12:01.340Z,72.25
2023-05-18T03:14:28.436Z,72.12
2023-05-18T03:16:57.826Z,72.78
2023-05-18T03:19:24.902Z,72.51
2023-05-18T03:21:51.446Z,72.62
2023-05-18T03:24:17.938Z,72.53
2023-05-18T03:26:44.663Z,72.44
2023-05-18T03:29:13.305Z,72.82
2023-05-18T03:31:40.295Z,73.39
2023-05-18T03:34:06.992Z,72.84
2023-05-18T03:36:33.572Z,72.86
2023-05-18T03:39:00.102Z,72.60
2023-05-18T03:41:26.736Z,72.52
2023-05-18T03:43:53.218Z,72.46
2023-05-18T03:46:19.799Z,72.45
2023-05-18T03:48:46.318Z,72.64
2023-05-18T03:51:12.832Z,72.74
2023-05-18T03:53:39.612Z,72.77
2023-05-18T03:56:06.310Z,72.59
2023-05-18T03:58:33.084Z,72.30
2023-05-18T04:01:00.861Z,72.95
2023-05-18T04:03:27.502Z,72.89
2023-05-18T04:05:54.219Z,72.67
2023-05-18T04:08:20.748Z,73.19
2023-05-18T04:10:47.358Z,73.07
2023-05-18T04:13:13.844Z,73.00
2023-05-18T04:15:40.395Z,72.77
2023-05-18T04:18:08.167Z,73.19
2023-05-18T04:20:34.772Z,72.87
2023-05-18T04:23:01.300Z,73.21
2023-05-18T04:25:28.238Z,73.13
2023-05-18T04:27:56.656Z,72.72
2023-05-18T04:30:23.813Z,72.63
2023-05-18T04:32:51.096Z,72.17
2023-05-18T04:35:18.523Z,72.15
2023-05-18T04:37:45.229Z,72.41
2023-05-18T04:40:16.932Z,72.47
2023-05-18T04:42:48.171Z,71.90
2023-05-18T04:45:17.121Z,71.63
2023-05-18T04:47:46.501Z,71.56
2023-05-18T04:50:17.467Z,71.34
2023-05-18T04:52:49.861Z,70.28
2023-05-18T04:55:22.855Z,70.98
2023-05-18T04:57:50.948Z,71.54
2023-05-18T05:00:18.142Z,71.13
2023-05-18T05:02:44.892Z,71.27
2023-05-18T05:05:11.945Z,70.69
2023-05-18T05:07:38.510Z,70.67
2023-05-18T05:10:05.462Z,70.54
2023-05-18T05:12:31.982Z,70.30
2023-05-18T05:14:58.557Z,70.09
2023-05-18T05:17:25.433Z,69.59
2023-05-18T05:19:52.023Z,69.62
2023-05-18T05:22:19.790Z,69.27
2023-05-18T05:24:46.633Z,68.99
2023-05-18T05:27:13.164Z,69.13
2023-05-18T05:29:39.714Z,68.78
2023-05-18T05:32:06.894Z,67.86
2023-05-18T05:34:33.469Z,68.32
2023-05-18T05:37:00.045Z,67.93
2023-05-18T05:39:26.553Z,67.73
2023-05-18T05:41:53.035Z,67.05
2023-05-18T05:44:19.551Z,66.95
2023-05-18T05:46:46.157Z,67.43
2023-05-18T05:49:12.633Z,67.37
2023-05-18T05:51:39.103Z,67.20
2023-05-18T05:54:05.897Z,67.32
2023-05-18T05:56:32.392Z,66.82
2023-05-18T05:58:58.877Z,67.22
2023-05-18T06:01:25.736Z,66.26
2023-05-18T06:03:52.334Z,66.12
2023-05-18T06:06:18.886Z,65.91
2023-05-18T06:08:45.521Z,65.26
2023-05-18T06:11:12.257Z,64.97
2023-05-18T06:13:38.917Z,64.98
2023-05-18T06:16:05.652Z,64.31
2023-05-18T06:18:32.365Z,63.97
2023-05-18T06:20:58.942Z,63.95
2023-05-18T06:23:25.741Z,63.81
2023-05-18T06:25:53.239Z,62.84
2023-05-18T06:28:19.707Z,62.91
2023-05-18T06:30:46.307Z,62.77
2023-05-18T06:33:13.907Z,62.03
2023-05-18T06:35:41.276Z,62.00
2023-05-18T06:38:08.532Z,61.12
2023-05-18T06:40:35.183Z,61.09
2023-05-18T06:43:01.706Z,61.13
2023-05-18T06:45:28.469Z,60.69
2023-05-18T06:47:55.280Z,60.30
2023-05-18T06:50:21.949Z,59.39
2023-05-18T06:52:48.487Z,59.49
2023-05-18T06:55:15.425Z,59.96
2023-05-18T06:57:42.149Z,59.80
2023-05-18T07:00:09.674Z,58.90
2023-05-18T07:02:36.362Z,56.99
2023-05-18T07:05:05.533Z,55.76
2023-05-18T07:07:32.153Z,58.33
2023-05-18T07:09:58.991Z,57.43
2023-05-18T07:12:26.836Z,57.68
2023-05-18T07:14:53.401Z,57.52
2023-05-18T07:17:20.062Z,57.07
2023-05-18T07:19:46.661Z,56.76
2023-05-18T07:22:13.179Z,56.15
2023-05-18T07:24:39.739Z,54.55
2023-05-18T07:27:06.418Z,54.36
2023-05-18T07:29:33.337Z,53.03
2023-05-18T07:31:59.960Z,52.34
2023-05-18T07:34:27.223Z,53.23
2023-05-18T07:36:53.964Z,52.39
2023-05-18T07:39:20.691Z,51.55
2023-05-18T07:41:48.441Z,51.33
2023-05-18T07:44:15.823Z,50.19
2023-05-18T07:46:43.251Z,50.88
2023-05-18T07:49:09.848Z,49.99
2023-05-18T07:51:36.417Z,50.04
2023-05-18T07:54:03.509Z,49.82
2023-05-18T07:56:30.457Z,49.92
2023-05-18T07:58:57.130Z,49.49
2023-05-18T08:01:27.530Z,49.95
2023-05-18T08:03:54.711Z,49.54
2023-05-18T08:06:21.397Z,47.67
2023-05-18T08:08:48.304Z,48.56
2023-05-18T08:11:15.103Z,47.54
2023-05-18T08:13:41.877Z,43.70
2023-05-18T08:16:12.194Z,43.88
2023-05-18T08:18:40.008Z,44.32
2023-05-18T08:21:10.045Z,45.36
2023-05-18T08:23:37.597Z,45.09
2023-05-18T08:26:04.638Z,46.57
2023-05-18T08:28:31.862Z,46.79
2023-05-18T08:30:58.900Z,45.24
2023-05-18T08:33:25.973Z,44.36
2023-05-18T08:35:52.684Z,45.70
2023-05-18T08:38:19.669Z,45.26
2023-05-18T08:41:07.985Z,45.36
2023-05-18T08:43:39.003Z,46.05
2023-05-18T08:46:13.707Z,44.95
2023-05-18T08:48:44.301Z,44.37
2023-05-18T08:51:11.903Z,44.44
2023-05-18T08:53:39.830Z,45.29
2023-05-18T08:56:07.450Z,44.79
2023-05-18T08:58:44.748Z,45.23
2023-05-18T09:01:11.861Z,44.69
2023-05-18T09:03:39.500Z,45.60
2023-05-18T09:06:07.359Z,44.14
2023-05-18T09:08:34.617Z,44.46
2023-05-18T09:11:02.898Z,43.93
2023-05-18T09:13:30.364Z,43.28
2023-05-18T09:15:57.238Z,42.88
2023-05-18T09:18:25.536Z,43.20
2023-05-18T09:20:53.600Z,42.92
2023-05-18T09:23:20.394Z,42.59
2023-05-18T09:25:50.483Z,42.16
2023-05-18T09:28:35.299Z,42.55
2023-05-18T09:31:02.313Z,42.09
2023-05-18T09:33:37.052Z,40.91
2023-05-18T09:36:08.919Z,40.84
2023-05-18T09:38:45.422Z,40.26
2023-05-18T09:41:18.897Z,40.92
2023-05-18T09:43:48.223Z,40.49
2023-05-18T09:46:15.076Z,40.75
2023-05-18T09:48:44.139Z,41.50
2023-05-18T09:51:16.261Z,41.40
2023-05-18T09:54:06.168Z,41.52
2023-05-18T09:56:36.256Z,40.93
2023-05-18T09:59:14.149Z,39.31
2023-05-18T10:01:56.853Z,40.08
2023-05-18T10:04:23.875Z,39.98
2023-05-18T10:06:50.945Z,39.90
2023-05-18T10:09:17.962Z,40.62
2023-05-18T10:11:44.866Z,40.61
2023-05-18T10:14:11.636Z,39.38
2023-05-18T10:16:38.698Z,39.74
2023-05-18T10:19:06.549Z,39.24
2023-05-18T10:21:35.928Z,39.25
2023-05-18T10:24:05.284Z,39.69
2023-05-18T10:26:39.211Z,39.74
2023-05-18T10:29:06.407Z,40.12
2023-05-18T10:31:35.875Z,39.37
2023-05-18T10:34:03.668Z,39.04
2023-05-18T10:36:32.713Z,37.68
2023-05-18T10:39:00.363Z,37.09
2023-05-18T10:41:28.282Z,36.81
2023-05-18T10:43:55.160Z,37.30
2023-05-18T10:46:26.757Z,37.91
2023-05-18T10:48:54.053Z,36.07
2023-05-18T10:51:21.444Z,36.36
2023-05-18T10:53:48.424Z,38.84
2023-05-18T10:56:18.341Z,40.28
2023-05-18T10:58:46.303Z,35.21
2023-05-18T11:01:14.019Z,35.15
2023-05-18T11:03:42.080Z,35.39
2023-05-18T11:06:12.305Z,32.70
2023-05-18T11:08:50.586Z,31.29
2023-05-18T11:11:19.264Z,30.64
2023-05-18T11:13:51.312Z,33.49
2023-05-18T11:16:21.276Z,30.53
2023-05-18T11:18:52.496Z,29.52
2023-05-18T11:21:25.310Z,27.69
2023-05-18T11:24:20.221Z,27.42
2023-05-18T11:26:49.179Z,31.07
2023-05-18T11:29:35.541Z,34.41
2023-05-18T11:32:04.909Z,35.69
2023-05-18T11:34:47.583Z,35.57
2023-05-18T11:37:15.909Z,31.66
2023-05-18T11:42:22.966Z,30.80
2023-05-18T11:44:56.186Z,30.56
2023-05-18T11:47:31.339Z,30.03
2023-05-18T11:49:58.121Z,29.27
2023-05-18T11:52:25.380Z,28.71
2023-05-18T11:54:56.545Z,29.57
2023-05-18T11:57:26.581Z,30.80
2023-05-18T11:59:58.299Z,29.97
2023-05-18T12:02:27.273Z,30.60
2023-05-18T12:05:00.279Z,31.49
2023-05-18T12:07:28.923Z,29.44
2023-05-18T12:09:59.375Z,30.06
2023-05-18T12:12:27.391Z,29.74
2023-05-18T12:14:59.725Z,28.12
2023-05-18T12:17:43.658Z,27.46
2023-05-18T12:20:12.411Z,26.23
2023-05-18T12:22:40.214Z,27.12
2023-05-18T12:25:07.911Z,29.47
2023-05-18T12:27:42.886Z,30.02
2023-05-18T12:30:16.697Z,29.31
2023-05-18T12:33:04.762Z,29.81
2023-05-18T12:35:32.198Z,30.32
2023-05-18T12:38:00.731Z,30.17
2023-05-18T12:40:28.699Z,27.85
2023-05-18T12:42:57.382Z,25.31
2023-05-18T12:45:27.822Z,24.48
2023-05-18T12:47:56.249Z,23.13
2023-05-18T12:50:25.628Z,23.01
2023-05-18T12:52:52.611Z,23.89
2023-05-18T12:55:25.184Z,22.30
2023-05-18T12:58:03.424Z,24.52
2023-05-18T13:00:34.880Z,25.12
2023-05-18T13:03:11.892Z,25.33
2023-05-18T13:05:42.572Z,24.85
2023-05-18T13:08:09.497Z,25.84
2023-05-18T13:10:36.135Z,28.47
2023-05-18T13:13:05.408Z,28.53
2023-05-18T13:15:39.413Z,25.94
2023-05-18T13:18:11.809Z,26.04
2023-05-18T13:20:45.125Z,26.13
2023-05-18T13:23:14.508Z,25.56
2023-05-18T13:25:41.780Z,27.52
2023-05-18T13:28:10.806Z,28.96
2023-05-18T13:30:38.029Z,30.03
2023-05-18T13:33:08.316Z,30.43
2023-05-18T13:35:36.331Z,30.98
2023-05-18T13:38:02.956Z,29.94
2023-05-18T13:40:30.028Z,30.02
2023-05-18T13:42:56.629Z,31.77
2023-05-18T13:45:23.545Z,29.46
2023-05-18T13:47:57.082Z,26.15
2023-05-18T13:50:23.973Z,25.04
2023-05-18T13:52:50.969Z,26.04
2023-05-18T13:55:17.592Z,25.18
2023-05-18T13:57:45.089Z,25.14
2023-05-18T14:00:13.282Z,24.56
2023-05-18T14:02:49.217Z,26.94
2023-05-18T14:05:16.443Z,26.49
2023-05-18T14:07:43.757Z,27.29
2023-05-18T14:10:11.534Z,26.70
2023-05-18T14:12:38.917Z,24.25
2023-05-18T14:15:06.142Z,24.49
2023-05-18T14:17:32.882Z,25.42
2023-05-18T14:19:59.565Z,26.81
2023-05-18T14:22:26.582Z,26.86
2023-05-18T14:24:53.887Z,26.91
2023-05-18T14:27:20.816Z,25.52
2023-05-18T14:29:50.507Z,24.25
2023-05-18T14:32:17.496Z,22.54
2023-05-18T14:34:44.034Z,21.05
2023-05-18T14:37:10.500Z,20.48
2023-05-18T14:39:37.901Z,21.65
2023-05-18T14:42:05.544Z,23.43
2023-05-18T14:44:32.139Z,25.57
2023-05-18T14:46:58.771Z,26.42
2023-05-18T14:49:25.781Z,27.04
2023-05-18T14:51:52.384Z,27.76
2023-05-18T14:54:22.611Z,27.75
2023-05-18T14:56:49.177Z,27.19
2023-05-18T14:59:15.939Z,27.17
2023-05-18T15:01:42.584Z,27.92
2023-05-18T15:04:09.453Z,27.68
2023-05-18T15:06:37.587Z,27.35
2023-05-18T15:09:06.217Z,26.71
2023-05-18T15:11:32.850Z,28.32
2023-05-18T15:13:59.421Z,29.48
2023-05-18T15:16:26.100Z,30.35
2023-05-18T15:18:52.806Z,29.78
2023-05-18T15:21:19.459Z,30.16
2023-05-18T15:23:46.123Z,29.40
2023-05-18T15:26:13.130Z,29.56
2023-05-18T15:28:40.993Z,29.99
2023-05-18T15:31:09.252Z,30.81
2023-05-18T15:33:36.943Z,30.90
2023-05-18T15:36:03.868Z,29.91
2023-05-18T15:38:30.416Z,28.73
2023-05-18T15:40:57.005Z,28.98
2023-05-18T15:43:26.071Z,29.07
2023-05-18T15:45:52.751Z,29.53
2023-05-18T15:48:19.327Z,29.08
2023-05-18T15:50:46.319Z,28.70
2023-05-18T15:53:12.976Z,28.91
2023-05-18T15:55:39.510Z,29.30
2023-05-18T15:58:06.010Z,28.47
2023-05-18T16:00:32.658Z,29.35
2023-05-18T16:02:59.375Z,29.26
2023-05-18T16:05:25.925Z,29.49
2023-05-18T16:07:52.413Z,30.00
2023-05-18T16:10:18.908Z,30.08
2023-05-18T16:12:45.503Z,30.28
2023-05-18T16:15:12.064Z,29.27
2023-05-18T16:17:38.640Z,29.69
2023-05-18T16:20:05.843Z,30.08
2023-05-18T16:22:32.518Z,29.61
2023-05-18T16:24:59.060Z,29.28
2023-05-18T16:27:25.898Z,29.55
2023-05-18T16:29:52.559Z,29.65
2023-05-18T16:32:19.161Z,29.86
2023-05-18T16:34:45.990Z,29.11
2023-05-18T16:37:12.507Z,28.47
2023-05-18T16:39:39.254Z,28.68
2023-05-18T16:42:07.701Z,29.01
2023-05-18T16:44:35.304Z,28.73
2023-05-18T16:47:01.820Z,29.11
2023-05-18T16:49:28.338Z,29.65
2023-05-18T16:51:54.870Z,29.95
2023-05-18T16:54:21.444Z,29.83
2023-05-18T16:56:47.932Z,31.31
2023-05-18T16:59:14.441Z,31.31
2023-05-18T17:01:40.940Z,31.78
2023-05-18T17:04:07.573Z,31.41
2023-05-18T17:06:34.303Z,32.11
2023-05-18T17:09:01.042Z,32.87
2023-05-18T17:11:28.024Z,32.98
2023-05-18T17:13:54.980Z,33.69
2023-05-18T17:16:22.778Z,33.83
2023-05-18T17:18:50.609Z,33.60
2023-05-18T17:21:17.120Z,33.64
2023-05-18T17:23:43.714Z,33.96
2023-05-18T17:26:10.536Z,34.33
2023-05-18T17:28:37.256Z,33.88
2023-05-18T17:31:04.065Z,33.89
2023-05-18T17:33:30.821Z,34.20
2023-05-18T17:35:57.547Z,34.85
2023-05-18T17:38:24.233Z,35.45
2023-05-18T17:40:50.826Z,36.27
2023-05-18T17:43:17.602Z,36.65
2023-05-18T17:45:44.098Z,36.48
2023-05-18T17:48:11.108Z,36.56
2023-05-18T17:50:37.868Z,36.31
2023-05-18T17:53:05.082Z,35.96
2023-05-18T17:55:31.972Z,36.14
2023-05-18T17:58:01.010Z,36.31
2023-05-18T18:00:27.818Z,36.66
2023-05-18T18:02:55.296Z,37.55
2023-05-18T18:05:22.066Z,37.43
2023-05-18T18:07:48.660Z,37.71
2023-05-18T18:10:15.265Z,38.24
2023-05-18T18:12:41.880Z,37.76
2023-05-18T18:15:08.953Z,38.16
2023-05-18T18:17:35.684Z,37.38
2023-05-18T18:20:02.487Z,38.23
2023-05-18T18:22:28.997Z,38.33
2023-05-18T18:24:55.729Z,38.57
2023-05-18T18:27:22.302Z,39.11
2023-05-18T18:29:49.336Z,39.29
2023-05-18T18:32:15.941Z,39.26
2023-05-18T18:34:42.625Z,39.04
2023-05-18T18:37:09.168Z,39.70
2023-05-18T18:39:35.785Z,39.54
2023-05-18T18:42:02.873Z,39.98
2023-05-18T18:44:29.426Z,40.47
2023-05-18T18:46:56.069Z,40.84
2023-05-18T18:49:22.670Z,40.99
2023-05-18T18:51:49.181Z,41.13
2023-05-18T18:54:15.881Z,41.92
2023-05-18T18:56:43.975Z,41.79
2023-05-18T18:59:10.726Z,42.30
2023-05-18T19:01:38.414Z,42.52
2023-05-18T19:04:05.042Z,42.86
2023-05-18T19:06:32.076Z,42.95
2023-05-18T19:08:58.828Z,43.73
2023-05-18T19:11:26.836Z,43.55
2023-05-18T19:13:53.400Z,44.26
2023-05-18T19:16:21.752Z,44.79
2023-05-18T19:18:48.622Z,44.76
2023-05-18T19:21:15.261Z,45.21
2023-05-18T19:23:42.021Z,45.52
2023-05-18T19:26:08.927Z,46.34
2023-05-18T19:28:35.756Z,47.14
2023-05-18T19:31:02.538Z,46.50
2023-05-18T19:33:29.218Z,47.33
2023-05-18T19:35:55.824Z,47.49
2023-05-18T19:38:22.409Z,47.12
2023-05-18T19:40:49.073Z,47.51
2023-05-18T19:43:15.956Z,47.57
2023-05-18T19:45:42.697Z,47.47
2023-05-18T19:48:09.520Z,48.06
2023-05-18T19:50:36.404Z,48.29
2023-05-18T19:53:02.894Z,49.07
2023-05-18T19:55:29.873Z,49.07
2023-05-18T19:57:56.633Z,49.19
2023-05-18T20:00:23.205Z,50.15
2023-05-18T20:02:50.000Z,50.42
2023-05-18T20:05:18.744Z,50.77
2023-05-18T20:07:45.655Z,50.74
2023-05-18T20:10:12.267Z,52.08
2023-05-18T20:12:38.828Z,52.47
2023-05-18T20:15:07.246Z,52.80
2023-05-18T20:17:33.834Z,52.20
2023-05-18T20:20:00.661Z,52.54
2023-05-18T20:22:27.254Z,52.72
2023-05-18T20:24:54.869Z,53.70
2023-05-18T20:27:21.497Z,54.70
2023-05-18T20:29:48.068Z,54.66
2023-05-18T20:32:14.558Z,55.00
2023-05-18T20:34:41.371Z,54.92
2023-05-18T20:37:10.701Z,54.61
2023-05-18T20:39:37.691Z,56.42
2023-05-18T20:42:05.029Z,57.91
2023-05-18T20:44:31.593Z,58.39
2023-05-18T20:46:58.131Z,59.43
2023-05-18T20:49:24.881Z,58.14
2023-05-18T20:51:51.430Z,56.57
2023-05-18T20:54:18.937Z,56.21
2023-05-18T20:56:45.578Z,54.37
2023-05-18T20:59:12.685Z,54.75
2023-05-18T21:01:40.000Z,54.65
2023-05-18T21:04:06.895Z,55.26
2023-05-18T21:06:34.447Z,56.07
2023-05-18T21:09:01.446Z,55.87
2023-05-18T21:11:28.158Z,56.35
2023-05-18T21:13:55.035Z,55.94
2023-05-18T21:16:21.618Z,55.94
2023-05-18T21:18:48.169Z,56.71
2023-05-18T21:21:14.789Z,57.15
2023-05-18T21:23:41.328Z,56.96
2023-05-18T21:26:07.914Z,56.83
2023-05-18T21:28:34.527Z,57.20
2023-05-18T21:31:01.304Z,57.23
2023-05-18T21:33:28.281Z,57.39
2023-05-18T21:35:55.028Z,57.97
2023-05-18T21:38:21.763Z,57.87
2023-05-18T21:40:48.913Z,58.49
2023-05-18T21:43:15.524Z,58.81
2023-05-18T21:45:42.370Z,58.89
2023-05-18T21:48:09.305Z,58.94
2023-05-18T21:50:36.201Z,59.75
2023-05-18T21:53:03.528Z,59.39
2023-05-18T21:55:31.680Z,59.47
2023-05-18T21:57:58.488Z,59.66
2023-05-18T22:00:25.732Z,60.13
2023-05-18T22:02:52.800Z,59.71
2023-05-18T22:05:19.647Z,59.99
2023-05-18T22:07:46.372Z,60.58
2023-05-18T22:10:13.007Z,60.30
2023-05-18T22:12:41.909Z,60.54
2023-05-18T22:15:10.416Z,60.44
2023-05-18T22:17:37.161Z,60.62
2023-05-18T22:20:11.819Z,61.26
2023-05-18T22:22:40.434Z,61.00
2023-05-18T22:25:07.576Z,61.35
2023-05-18T22:27:36.313Z,61.41
2023-05-18T22:30:03.616Z,61.22
2023-05-18T22:32:30.298Z,60.43
2023-05-18T22:34:57.880Z,61.30
2023-05-18T22:37:24.440Z,61.99
2023-05-18T22:39:51.176Z,62.27
2023-05-18T22:42:17.947Z,61.89
2023-05-18T22:44:44.680Z,61.59
2023-05-18T22:47:11.348Z,61.53
2023-05-18T22:49:41.039Z,61.05
2023-05-18T22:52:08.185Z,61.36
2023-05-18T22:54:34.748Z,61.85
2023-05-18T22:57:01.379Z,61.70
2023-05-18T22:59:28.670Z,61.77
2023-05-18T23:01:55.322Z,62.50
2023-05-18T23:04:21.893Z,62.12
2023-05-18T23:06:49.705Z,62.78
2023-05-18T23:09:16.962Z,62.35
2023-05-18T23:11:44.579Z,62.63
2023-05-18T23:14:11.196Z,63.03
2023-05-18T23:19:09.551Z,63.41
2023-05-18T23:21:36.478Z,63.33
2023-05-18T23:24:03.121Z,63.62
2023-05-18T23:26:29.748Z,64.04
2023-05-18T23:28:56.261Z,64.26
2023-05-18T23:31:23.141Z,63.67
2023-05-18T23:33:50.042Z,64.07
2023-05-18T23:36:20.039Z,64.30
2023-05-18T23:38:50.950Z,64.06
2023-05-18T23:41:17.925Z,64.34
2023-05-18T23:43:44.687Z,64.03
2023-05-18T23:46:11.752Z,64.38
2023-05-18T23:48:38.687Z,64.63
2023-05-18T23:51:07.853Z,64.77
2023-05-18T23:53:35.086Z,64.99
2023-05-18T23:56:02.675Z,65.46
2023-05-18T23:58:31.485Z,65.18
